European Causeway — C6RG7 — position and weather

sailwx.info

Track history (hours):
 
Tides and Currents Weather Stations Pressure Air Temp Water Temp Dewpoint Dewpoint Depression Visibility Wind Speed Wind Dir Waves Ship Positions

European Causeway

Operator: P & O Irish Sea

Last reported at 2016-Jul-25 17:33 UTC. Time now 2016-Jul-25 17:55 UTC.
Position N 54°58' W 005°01'.

Length 165 m; draft 5.5 m.

Type: Passenger vessel. MMSI: 311027000.

Date/timePositionNaut miles runAvg speedWind from/ knotsBaromVisibWave heightAir tempDewpointWater temp
2016-Jul-25 17:33N 54°58' W 005°01'1211.6
2016-Jul-25 16:32N 54°58' W 005°22'1616.9
2016-Jul-25 15:33N 54°51' W 005°48'0 0.1
2016-Jul-25 14:33N 54°51' W 005°48'1312.5
2016-Jul-25 13:33N 54°57' W 005°29'1515.1
2016-Jul-25 12:33N 54°59' W 005°03'2 1.5
2016-Jul-25 11:33N 54°58' W 005°01'1010.4
2016-Jul-25 10:33N 54°58' W 005°19'1818.1
2016-Jul-25 09:33N 54°51' W 005°48'0 0.1
2016-Jul-25 08:30N 54°51' W 005°48'1313.5
2016-Jul-25 07:33N 54°57' W 005°29'1514.8
2016-Jul-25 06:32N 54°59' W 005°02'1 1.2
2016-Jul-25 05:27N 54°58' W 005°01'5 5.4
2016-Jul-25 04:28N 55°02' W 005°08'1920.4
2016-Jul-25 03:33N 54°54' W 005°37'7 6.9
2016-Jul-25 02:33N 54°51' W 005°48'0 0.0
2016-Jul-25 01:33N 54°51' W 005°48'0 0.0
2016-Jul-25 00:33N 54°51' W 005°48'4 3.7
2016-Jul-24 23:33N 54°53' W 005°43'1818.4
2016-Jul-24 22:33N 55°01' W 005°14'8 7.5
2016-Jul-24 21:30N 54°58' W 005°01'5 4.8
2016-Jul-24 20:27N 55°02' W 005°07'1718.7
2016-Jul-24 19:34N 54°55' W 005°33'9 6.6
2016-Jul-24 18:08N 54°51' W 005°48'0 0.0
2016-Jul-24 17:30N 54°51' W 005°48'1313.4
2016-Jul-24 16:34N 54°57' W 005°29'1515.1
2016-Jul-24 15:33N 54°59' W 005°03'2 1.6
2016-Jul-24 14:33N 54°58' W 005°01'1110.5
2016-Jul-24 13:32N 54°58' W 005°20'1817.9
2016-Jul-24 12:33N 54°51' W 005°48'0 0.5
2016-Jul-24 11:33N 54°51' W 005°48'1313.2
2016-Jul-24 10:34N 54°57' W 005°28'1514.8
2016-Jul-24 09:33N 54°59' W 005°02'1 1.3
2016-Jul-24 08:33N 54°58' W 005°01'10 9.8
2016-Jul-24 07:33N 54°59' W 005°18'1917.6
2016-Jul-24 06:29N 54°51' W 005°48'0 0.1
2016-Jul-24 05:23N 54°51' W 005°48'0 0.0
2016-Jul-24 04:23N 54°51' W 005°48'0 0.0
2016-Jul-24 03:26N 54°51' W 005°48'0 0.0
2016-Jul-24 02:29N 54°51' W 005°48'0 0.0
2016-Jul-24 01:14N 54°51' W 005°48'0 0.0
2016-Jul-24 00:29N 54°51' W 005°48'0 0.0
2016-Jul-23 23:29N 54°51' W 005°48'0 0.0
2016-Jul-23 22:29N 54°51' W 005°48'0 0.0
2016-Jul-23 21:20N 54°51' W 005°48'3 3.6
2016-Jul-23 20:33N 54°53' W 005°44'1716.8
2016-Jul-23 19:33N 54°60' W 005°18'10 9.6
2016-Jul-23 18:32N 54°58' W 005°01'0 0.0
2016-Jul-23 17:33N 54°58' W 005°01'1311.4
2016-Jul-23 16:25N 54°58' W 005°23'1517.6
2016-Jul-23 15:33N 54°52' W 005°47'1 0.9
2016-Jul-23 14:33N 54°51' W 005°48'1414.0
2016-Jul-23 13:33N 54°57' W 005°26'1414.6
2016-Jul-23 12:33N 54°58' W 005°01'0 0.0
2016-Jul-23 11:33N 54°58' W 005°01'10 9.9
2016-Jul-23 10:33N 54°59' W 005°18'1916.5
2016-Jul-23 09:25N 54°51' W 005°48'0 0.1
2016-Jul-23 08:26N 54°51' W 005°48'1315.2
2016-Jul-23 07:33N 54°59' W 005°29'1515.1
2016-Jul-23 06:34N 54°59' W 005°03'4 1.8
2016-Jul-23 04:28N 55°02' W 005°07'1718.4
2016-Jul-23 03:32N 54°54' W 005°34'9 7.3
2016-Jul-23 02:22N 54°51' W 005°48'0 0.0
2016-Jul-23 01:25N 54°51' W 005°48'5 5.3
2016-Jul-23 00:32N 54°54' W 005°43'1616.4
2016-Jul-22 23:33N 55°01' W 005°17'10 9.3
2016-Jul-22 22:31N 54°58' W 005°01'0 0.0
2016-Jul-22 21:31N 54°58' W 005°01'5 4.9
2016-Jul-22 20:31N 55°01' W 005°06'1717.9
2016-Jul-22 19:33N 54°54' W 005°33'9 8.3
2016-Jul-22 18:28N 54°51' W 005°48'0 0.0
2016-Jul-22 17:31N 54°51' W 005°48'1414.6
2016-Jul-22 16:33N 54°58' W 005°27'1514.2
2016-Jul-22 15:30N 54°58' W 005°01'0 0.0
2016-Jul-22 14:33N 54°58' W 005°01'1211.4
2016-Jul-22 13:32N 54°58' W 005°21'1716.8
2016-Jul-22 12:33N 54°51' W 005°48'0 0.1
2016-Jul-22 11:30N 54°51' W 005°48'1616.6
2016-Jul-22 10:33N 54°59' W 005°24'1312.6
2016-Jul-22 09:30N 54°58' W 005°01'0 0.0
2016-Jul-22 08:33N 54°58' W 005°01'10 9.5
2016-Jul-22 07:32N 54°58' W 005°18'12 4.0
2016-Jul-22 04:33N 54°54' W 005°37'2017.3
2016-Jul-22 03:23N 54°59' W 005°03'2 2.6
2016-Jul-22 02:33N 54°58' W 005°01'0 0.0
2016-Jul-22 01:33N 54°58' W 005°01'5 4.9
2016-Jul-22 00:33N 55°02' W 005°06'1817.9
2016-Jul-21 23:33N 54°54' W 005°34'8 8.3
2016-Jul-21 22:33N 54°51' W 005°48'0 0.0
2016-Jul-21 21:33N 54°51' W 005°48'4 4.2
2016-Jul-21 20:33N 54°53' W 005°42'1817.7
2016-Jul-21 19:33N 55°01' W 005°14'8 7.7
2016-Jul-21 18:30N 54°58' W 005°01'0 0.0
2016-Jul-21 17:33N 54°58' W 005°01'1312.2
2016-Jul-21 16:32N 54°58' W 005°23'1613.3
2016-Jul-21 15:19N 54°51' W 005°48'0 0.0
2016-Jul-21 14:29N 54°51' W 005°48'1616.4
2016-Jul-21 13:31N 54°60' W 005°25'1414.1
2016-Jul-21 12:33N 54°58' W 005°01'0 0.3
2016-Jul-21 11:34N 54°58' W 005°01'1110.9
2016-Jul-21 10:33N 54°59' W 005°20'1817.7
2016-Jul-21 09:33N 54°51' W 005°48'0 0.2
2016-Jul-21 08:33N 54°51' W 005°48'1413.7
2016-Jul-21 07:33N 54°58' W 005°28'1514.6
2016-Jul-21 06:33N 54°58' W 005°02'1 1.0
2016-Jul-21 05:33N 54°58' W 005°01'5 4.7
2016-Jul-21 04:32N 55°02' W 005°06'1919.5
2016-Jul-21 03:32N 54°54' W 005°37'7 6.4
2016-Jul-21 02:26N 54°51' W 005°48'0 0.0
2016-Jul-21 01:26N 54°51' W 005°48'5 5.8
2016-Jul-21 00:33N 54°54' W 005°41'1818.3
2016-Jul-20 23:33N 55°01' W 005°12'7 6.1
2016-Jul-20 22:23N 54°58' W 005°01'0 0.0
2016-Jul-20 21:29N 54°58' W 005°01'5 5.1
2016-Jul-20 20:33N 55°01' W 005°06'1817.9
2016-Jul-20 19:33N 54°54' W 005°34'9 8.4
2016-Jul-20 18:31N 54°51' W 005°48'0 0.0
2016-Jul-20 17:33N 54°51' W 005°48'1414.4
2016-Jul-20 16:33N 54°58' W 005°26'1414.2
2016-Jul-20 15:33N 54°58' W 005°02'1 0.7
2016-Jul-20 14:33N 54°58' W 005°01'1010.2
2016-Jul-20 13:34N 54°58' W 005°19'1818.3
2016-Jul-20 12:33N 54°51' W 005°48'0 0.1
2016-Jul-20 11:33N 54°51' W 005°48'1413.8
2016-Jul-20 10:32N 54°58' W 005°26'15 7.3
2016-Jul-20 08:32N 54°58' W 005°01'1110.7
2016-Jul-20 07:30N 54°57' W 005°20'1717.3
2016-Jul-20 06:31N 54°51' W 005°48'0 0.1
2016-Jul-20 05:32N 54°51' W 005°48'6 5.9
2016-Jul-20 04:33N 54°54' W 005°39'2020.3
2016-Jul-20 03:33N 55°02' W 005°07'5 5.4
2016-Jul-20 02:33N 54°58' W 005°01'0 0.0
2016-Jul-20 01:33N 54°58' W 005°01'5 5.3
2016-Jul-20 00:33N 55°02' W 005°07'1818.0
2016-Jul-19 23:34N 54°54' W 005°35'8 7.7
2016-Jul-19 22:33N 54°51' W 005°48'0 0.0
2016-Jul-19 21:28N 54°51' W 005°48'5 5.4
2016-Jul-19 20:33N 54°54' W 005°41'1615.9
2016-Jul-19 19:33N 55°00' W 005°15'9 8.2
2016-Jul-19 18:30N 54°58' W 005°01'0 0.0
2016-Jul-19 17:33N 54°58' W 005°01'1010.2
2016-Jul-19 16:34N 54°59' W 005°19'1818.2
2016-Jul-19 15:33N 54°51' W 005°48'0 0.4
2016-Jul-19 14:33N 54°51' W 005°48'1414.1
2016-Jul-19 13:33N 54°58' W 005°27'1414.6
2016-Jul-19 12:33N 54°58' W 005°02'0 0.5
2016-Jul-19 11:33N 54°58' W 005°01'1010.1
2016-Jul-19 10:33N 54°59' W 005°18'1918.7
2016-Jul-19 09:33N 54°51' W 005°48'0 0.1
2016-Jul-19 08:33N 54°51' W 005°48'1515.6
2016-Jul-19 07:34N 54°58' W 005°24'11 3.7
2016-Jul-19 04:32N 55°01' W 005°06'1919.4
2016-Jul-19 03:33N 54°54' W 005°36'8 7.6
2016-Jul-19 02:33N 54°51' W 005°48'0 0.0
2016-Jul-19 01:33N 54°51' W 005°48'4 4.1
2016-Jul-19 00:34N 54°54' W 005°43'1817.8
2016-Jul-18 23:34N 55°01' W 005°14'8 8.2
2016-Jul-18 22:33N 54°58' W 005°01'0 0.0
2016-Jul-18 21:32N 54°58' W 005°01'6 5.6
2016-Jul-18 20:33N 55°02' W 005°08'1717.6
2016-Jul-18 19:34N 54°55' W 005°36'8 7.9
2016-Jul-18 18:33N 54°51' W 005°48'0 0.0
2016-Jul-18 17:33N 54°51' W 005°48'1212.3
2016-Jul-18 16:33N 54°57' W 005°29'1515.1
2016-Jul-18 15:33N 54°59' W 005°03'2 1.7
2016-Jul-18 14:33N 54°58' W 005°01'1110.9
2016-Jul-18 13:33N 54°58' W 005°20'1817.7
2016-Jul-18 12:34N 54°51' W 005°48'0 0.1
2016-Jul-18 11:33N 54°51' W 005°48'1614.5
2016-Jul-18 10:27N 54°59' W 005°23'1311.7
2016-Jul-18 09:21N 54°58' W 005°01'0 0.0
2016-Jul-18 08:33N 54°58' W 005°01'1312.7
2016-Jul-18 07:34N 54°57' W 005°23'1615.6
2016-Jul-18 06:33N 54°51' W 005°48'0 0.0
2016-Jul-18 05:33N 54°51' W 005°48'6 6.1
2016-Jul-18 04:34N 54°55' W 005°39'1918.5
2016-Jul-18 03:34N 55°02' W 005°10'7 6.5
2016-Jul-18 02:33N 54°58' W 005°01'0 0.0
2016-Jul-18 01:33N 54°58' W 005°01'0 0.0
2016-Jul-18 00:33N 54°58' W 005°01'6 5.4
2016-Jul-17 23:30N 55°02' W 005°08'1718.3
2016-Jul-17 22:34N 54°54' W 005°35'8 7.9
2016-Jul-17 21:34N 54°51' W 005°48'5 4.8
2016-Jul-17 20:34N 54°54' W 005°42'1716.7
2016-Jul-17 19:34N 55°00' W 005°15'8 8.4
2016-Jul-17 18:33N 54°58' W 005°01'0 0.0
2016-Jul-17 17:33N 54°58' W 005°01'1110.7
2016-Jul-17 16:33N 54°58' W 005°20'1817.8
2016-Jul-17 15:34N 54°51' W 005°48'0 0.1
2016-Jul-17 14:30N 54°51' W 005°48'1313.8
2016-Jul-17 13:33N 54°57' W 005°28'1414.5
2016-Jul-17 12:33N 54°59' W 005°03'2 2.1
2016-Jul-17 11:33N 54°58' W 005°01'1010.3
2016-Jul-17 10:33N 54°58' W 005°19'1817.6
2016-Jul-17 09:33N 54°51' W 005°48'1 0.6
2016-Jul-17 08:34N 54°51' W 005°48'1413.6
2016-Jul-17 07:33N 54°57' W 005°27'1414.1
2016-Jul-17 06:33N 54°59' W 005°03'1 0.7
2016-Jul-17 04:32N 54°58' W 005°01'0 0.0
2016-Jul-17 03:29N 54°58' W 005°01'0 0.0
2016-Jul-17 02:32N 54°58' W 005°01'0 0.0
2016-Jul-17 01:20N 54°58' W 005°01'0 0.0
2016-Jul-17 00:29N 54°58' W 005°01'0 0.0
2016-Jul-16 23:32N 54°58' W 005°01'0 0.0
2016-Jul-16 22:32N 54°58' W 005°01'0 0.0
2016-Jul-16 21:33N 54°58' W 005°01'7 6.7
2016-Jul-16 20:33N 55°01' W 005°11'1818.4
2016-Jul-16 19:33N 54°53' W 005°40'5 5.1
2016-Jul-16 18:33N 54°51' W 005°48'0 0.0
2016-Jul-16 17:33N 54°51' W 005°48'1312.6
2016-Jul-16 16:34N 54°57' W 005°29'1615.5
2016-Jul-16 15:33N 54°58' W 005°02'1 0.7
2016-Jul-16 14:33N 54°58' W 005°01'10 9.8
2016-Jul-16 13:33N 54°59' W 005°18'1818.3
2016-Jul-16 12:33N 54°52' W 005°47'1 1.1
2016-Jul-16 11:33N 54°51' W 005°48'1313.1
2016-Jul-16 10:33N 54°57' W 005°28'1515.1
2016-Jul-16 09:33N 54°59' W 005°02'1 1.1
2016-Jul-16 08:33N 54°58' W 005°01'1010.2
2016-Jul-16 07:34N 54°59' W 005°19'1817.5
2016-Jul-16 06:34N 54°52' W 005°47'4 2.0
2016-Jul-16 04:33N 54°54' W 005°40'2019.7
2016-Jul-16 03:33N 55°02' W 005°09'6 6.4
2016-Jul-16 02:33N 54°58' W 005°01'0 0.0
2016-Jul-16 01:33N 54°58' W 005°01'5 4.7
2016-Jul-16 00:32N 55°02' W 005°06'1717.3
2016-Jul-15 23:33N 54°54' W 005°33'9 9.3
2016-Jul-15 22:33N 54°51' W 005°48'0 0.0
2016-Jul-15 21:33N 54°51' W 005°48'5 4.9
2016-Jul-15 20:33N 54°54' W 005°41'1716.6
2016-Jul-15 19:33N 55°01' W 005°14'8 8.3
2016-Jul-15 18:33N 54°58' W 005°01'  
Track history (hours):
 
Tides and Currents Weather Stations Pressure Air Temp Water Temp Dewpoint Dewpoint Depression Visibility Wind Speed Wind Dir Waves Ship Positions

European Causeway

Operator: P & O Irish Sea

Last reported at 2016-Jul-25 17:33 UTC. Time now 2016-Jul-25 17:55 UTC.
Position N 54°58' W 005°01'.

Length 165 m; draft 5.5 m.

Type: Passenger vessel. MMSI: 311027000.

Date/timePositionNaut miles runAvg speedWind from/ knotsBaromVisibWave heightAir tempDewpointWater temp
2016-Jul-25 17:33N 54°58' W 005°01'1211.6
2016-Jul-25 16:32N 54°58' W 005°22'1616.9
2016-Jul-25 15:33N 54°51' W 005°48'0 0.1
2016-Jul-25 14:33N 54°51' W 005°48'1312.5
2016-Jul-25 13:33N 54°57' W 005°29'1515.1
2016-Jul-25 12:33N 54°59' W 005°03'2 1.5
2016-Jul-25 11:33N 54°58' W 005°01'1010.4
2016-Jul-25 10:33N 54°58' W 005°19'1818.1
2016-Jul-25 09:33N 54°51' W 005°48'0 0.1
2016-Jul-25 08:30N 54°51' W 005°48'1313.5
2016-Jul-25 07:33N 54°57' W 005°29'1514.8
2016-Jul-25 06:32N 54°59' W 005°02'1 1.2
2016-Jul-25 05:27N 54°58' W 005°01'5 5.4
2016-Jul-25 04:28N 55°02' W 005°08'1920.4
2016-Jul-25 03:33N 54°54' W 005°37'7 6.9
2016-Jul-25 02:33N 54°51' W 005°48'0 0.0
2016-Jul-25 01:33N 54°51' W 005°48'0 0.0
2016-Jul-25 00:33N 54°51' W 005°48'4 3.7
2016-Jul-24 23:33N 54°53' W 005°43'1818.4
2016-Jul-24 22:33N 55°01' W 005°14'8 7.5
2016-Jul-24 21:30N 54°58' W 005°01'5 4.8
2016-Jul-24 20:27N 55°02' W 005°07'1718.7
2016-Jul-24 19:34N 54°55' W 005°33'9 6.6
2016-Jul-24 18:08N 54°51' W 005°48'0 0.0
2016-Jul-24 17:30N 54°51' W 005°48'1313.4
2016-Jul-24 16:34N 54°57' W 005°29'1515.1
2016-Jul-24 15:33N 54°59' W 005°03'2 1.6
2016-Jul-24 14:33N 54°58' W 005°01'1110.5
2016-Jul-24 13:32N 54°58' W 005°20'1817.9
2016-Jul-24 12:33N 54°51' W 005°48'0 0.5
2016-Jul-24 11:33N 54°51' W 005°48'1313.2
2016-Jul-24 10:34N 54°57' W 005°28'1514.8
2016-Jul-24 09:33N 54°59' W 005°02'1 1.3
2016-Jul-24 08:33N 54°58' W 005°01'10 9.8
2016-Jul-24 07:33N 54°59' W 005°18'1917.6
2016-Jul-24 06:29N 54°51' W 005°48'0 0.1
2016-Jul-24 05:23N 54°51' W 005°48'0 0.0
2016-Jul-24 04:23N 54°51' W 005°48'0 0.0
2016-Jul-24 03:26N 54°51' W 005°48'0 0.0
2016-Jul-24 02:29N 54°51' W 005°48'0 0.0
2016-Jul-24 01:14N 54°51' W 005°48'0 0.0
2016-Jul-24 00:29N 54°51' W 005°48'0 0.0
2016-Jul-23 23:29N 54°51' W 005°48'0 0.0
2016-Jul-23 22:29N 54°51' W 005°48'0 0.0
2016-Jul-23 21:20N 54°51' W 005°48'3 3.6
2016-Jul-23 20:33N 54°53' W 005°44'1716.8
2016-Jul-23 19:33N 54°60' W 005°18'10 9.6
2016-Jul-23 18:32N 54°58' W 005°01'0 0.0
2016-Jul-23 17:33N 54°58' W 005°01'1311.4
2016-Jul-23 16:25N 54°58' W 005°23'1517.6
2016-Jul-23 15:33N 54°52' W 005°47'1 0.9
2016-Jul-23 14:33N 54°51' W 005°48'1414.0
2016-Jul-23 13:33N 54°57' W 005°26'1414.6
2016-Jul-23 12:33N 54°58' W 005°01'0 0.0
2016-Jul-23 11:33N 54°58' W 005°01'10 9.9
2016-Jul-23 10:33N 54°59' W 005°18'1916.5
2016-Jul-23 09:25N 54°51' W 005°48'0 0.1
2016-Jul-23 08:26N 54°51' W 005°48'1315.2
2016-Jul-23 07:33N 54°59' W 005°29'1515.1
2016-Jul-23 06:34N 54°59' W 005°03'4 1.8
2016-Jul-23 04:28N 55°02' W 005°07'1718.4
2016-Jul-23 03:32N 54°54' W 005°34'9 7.3
2016-Jul-23 02:22N 54°51' W 005°48'0 0.0
2016-Jul-23 01:25N 54°51' W 005°48'5 5.3
2016-Jul-23 00:32N 54°54' W 005°43'1616.4
2016-Jul-22 23:33N 55°01' W 005°17'10 9.3
2016-Jul-22 22:31N 54°58' W 005°01'0 0.0
2016-Jul-22 21:31N 54°58' W 005°01'5 4.9
2016-Jul-22 20:31N 55°01' W 005°06'1717.9
2016-Jul-22 19:33N 54°54' W 005°33'9 8.3
2016-Jul-22 18:28N 54°51' W 005°48'0 0.0
2016-Jul-22 17:31N 54°51' W 005°48'1414.6
2016-Jul-22 16:33N 54°58' W 005°27'1514.2
2016-Jul-22 15:30N 54°58' W 005°01'0 0.0
2016-Jul-22 14:33N 54°58' W 005°01'1211.4
2016-Jul-22 13:32N 54°58' W 005°21'1716.8
2016-Jul-22 12:33N 54°51' W 005°48'0 0.1
2016-Jul-22 11:30N 54°51' W 005°48'1616.6
2016-Jul-22 10:33N 54°59' W 005°24'1312.6
2016-Jul-22 09:30N 54°58' W 005°01'0 0.0
2016-Jul-22 08:33N 54°58' W 005°01'10 9.5
2016-Jul-22 07:32N 54°58' W 005°18'12 4.0
2016-Jul-22 04:33N 54°54' W 005°37'2017.3
2016-Jul-22 03:23N 54°59' W 005°03'2 2.6
2016-Jul-22 02:33N 54°58' W 005°01'0 0.0
2016-Jul-22 01:33N 54°58' W 005°01'5 4.9
2016-Jul-22 00:33N 55°02' W 005°06'1817.9
2016-Jul-21 23:33N 54°54' W 005°34'8 8.3
2016-Jul-21 22:33N 54°51' W 005°48'0 0.0
2016-Jul-21 21:33N 54°51' W 005°48'4 4.2
2016-Jul-21 20:33N 54°53' W 005°42'1817.7
2016-Jul-21 19:33N 55°01' W 005°14'8 7.7
2016-Jul-21 18:30N 54°58' W 005°01'0 0.0
2016-Jul-21 17:33N 54°58' W 005°01'1312.2
2016-Jul-21 16:32N 54°58' W 005°23'1613.3
2016-Jul-21 15:19N 54°51' W 005°48'0 0.0
2016-Jul-21 14:29N 54°51' W 005°48'1616.4
2016-Jul-21 13:31N 54°60' W 005°25'1414.1
2016-Jul-21 12:33N 54°58' W 005°01'0 0.3
2016-Jul-21 11:34N 54°58' W 005°01'1110.9
2016-Jul-21 10:33N 54°59' W 005°20'1817.7
2016-Jul-21 09:33N 54°51' W 005°48'0 0.2
2016-Jul-21 08:33N 54°51' W 005°48'1413.7
2016-Jul-21 07:33N 54°58' W 005°28'1514.6
2016-Jul-21 06:33N 54°58' W 005°02'1 1.0
2016-Jul-21 05:33N 54°58' W 005°01'5 4.7
2016-Jul-21 04:32N 55°02' W 005°06'1919.5
2016-Jul-21 03:32N 54°54' W 005°37'7 6.4
2016-Jul-21 02:26N 54°51' W 005°48'0 0.0
2016-Jul-21 01:26N 54°51' W 005°48'5 5.8
2016-Jul-21 00:33N 54°54' W 005°41'1818.3
2016-Jul-20 23:33N 55°01' W 005°12'7 6.1
2016-Jul-20 22:23N 54°58' W 005°01'0 0.0
2016-Jul-20 21:29N 54°58' W 005°01'5 5.1
2016-Jul-20 20:33N 55°01' W 005°06'1817.9
2016-Jul-20 19:33N 54°54' W 005°34'9 8.4
2016-Jul-20 18:31N 54°51' W 005°48'0 0.0
2016-Jul-20 17:33N 54°51' W 005°48'1414.4
2016-Jul-20 16:33N 54°58' W 005°26'1414.2
2016-Jul-20 15:33N 54°58' W 005°02'1 0.7
2016-Jul-20 14:33N 54°58' W 005°01'1010.2
2016-Jul-20 13:34N 54°58' W 005°19'1818.3
2016-Jul-20 12:33N 54°51' W 005°48'0 0.1
2016-Jul-20 11:33N 54°51' W 005°48'1413.8
2016-Jul-20 10:32N 54°58' W 005°26'15 7.3
2016-Jul-20 08:32N 54°58' W 005°01'1110.7
2016-Jul-20 07:30N 54°57' W 005°20'1717.3
2016-Jul-20 06:31N 54°51' W 005°48'0 0.1
2016-Jul-20 05:32N 54°51' W 005°48'6 5.9
2016-Jul-20 04:33N 54°54' W 005°39'2020.3
2016-Jul-20 03:33N 55°02' W 005°07'5 5.4
2016-Jul-20 02:33N 54°58' W 005°01'0 0.0
2016-Jul-20 01:33N 54°58' W 005°01'5 5.3
2016-Jul-20 00:33N 55°02' W 005°07'1818.0
2016-Jul-19 23:34N 54°54' W 005°35'8 7.7
2016-Jul-19 22:33N 54°51' W 005°48'0 0.0
2016-Jul-19 21:28N 54°51' W 005°48'5 5.4
2016-Jul-19 20:33N 54°54' W 005°41'1615.9
2016-Jul-19 19:33N 55°00' W 005°15'9 8.2
2016-Jul-19 18:30N 54°58' W 005°01'0 0.0
2016-Jul-19 17:33N 54°58' W 005°01'1010.2
2016-Jul-19 16:34N 54°59' W 005°19'1818.2
2016-Jul-19 15:33N 54°51' W 005°48'0 0.4
2016-Jul-19 14:33N 54°51' W 005°48'1414.1
2016-Jul-19 13:33N 54°58' W 005°27'1414.6
2016-Jul-19 12:33N 54°58' W 005°02'0 0.5
2016-Jul-19 11:33N 54°58' W 005°01'1010.1
2016-Jul-19 10:33N 54°59' W 005°18'1918.7
2016-Jul-19 09:33N 54°51' W 005°48'0 0.1
2016-Jul-19 08:33N 54°51' W 005°48'1515.6
2016-Jul-19 07:34N 54°58' W 005°24'11 3.7
2016-Jul-19 04:32N 55°01' W 005°06'1919.4
2016-Jul-19 03:33N 54°54' W 005°36'8 7.6
2016-Jul-19 02:33N 54°51' W 005°48'0 0.0
2016-Jul-19 01:33N 54°51' W 005°48'4 4.1
2016-Jul-19 00:34N 54°54' W 005°43'1817.8
2016-Jul-18 23:34N 55°01' W 005°14'8 8.2
2016-Jul-18 22:33N 54°58' W 005°01'0 0.0
2016-Jul-18 21:32N 54°58' W 005°01'6 5.6
2016-Jul-18 20:33N 55°02' W 005°08'1717.6
2016-Jul-18 19:34N 54°55' W 005°36'8 7.9
2016-Jul-18 18:33N 54°51' W 005°48'0 0.0
2016-Jul-18 17:33N 54°51' W 005°48'1212.3
2016-Jul-18 16:33N 54°57' W 005°29'1515.1
2016-Jul-18 15:33N 54°59' W 005°03'2 1.7
2016-Jul-18 14:33N 54°58' W 005°01'1110.9
2016-Jul-18 13:33N 54°58' W 005°20'1817.7
2016-Jul-18 12:34N 54°51' W 005°48'0 0.1
2016-Jul-18 11:33N 54°51' W 005°48'1614.5
2016-Jul-18 10:27N 54°59' W 005°23'1311.7
2016-Jul-18 09:21N 54°58' W 005°01'0 0.0
2016-Jul-18 08:33N 54°58' W 005°01'1312.7
2016-Jul-18 07:34N 54°57' W 005°23'1615.6
2016-Jul-18 06:33N 54°51' W 005°48'0 0.0
2016-Jul-18 05:33N 54°51' W 005°48'6 6.1
2016-Jul-18 04:34N 54°55' W 005°39'1918.5
2016-Jul-18 03:34N 55°02' W 005°10'7 6.5
2016-Jul-18 02:33N 54°58' W 005°01'0 0.0
2016-Jul-18 01:33N 54°58' W 005°01'0 0.0
2016-Jul-18 00:33N 54°58' W 005°01'6 5.4
2016-Jul-17 23:30N 55°02' W 005°08'1718.3
2016-Jul-17 22:34N 54°54' W 005°35'8 7.9
2016-Jul-17 21:34N 54°51' W 005°48'5 4.8
2016-Jul-17 20:34N 54°54' W 005°42'1716.7
2016-Jul-17 19:34N 55°00' W 005°15'8 8.4
2016-Jul-17 18:33N 54°58' W 005°01'0 0.0
2016-Jul-17 17:33N 54°58' W 005°01'1110.7
2016-Jul-17 16:33N 54°58' W 005°20'1817.8
2016-Jul-17 15:34N 54°51' W 005°48'0 0.1
2016-Jul-17 14:30N 54°51' W 005°48'1313.8
2016-Jul-17 13:33N 54°57' W 005°28'1414.5
2016-Jul-17 12:33N 54°59' W 005°03'2 2.1
2016-Jul-17 11:33N 54°58' W 005°01'1010.3
2016-Jul-17 10:33N 54°58' W 005°19'1817.6
2016-Jul-17 09:33N 54°51' W 005°48'1 0.6
2016-Jul-17 08:34N 54°51' W 005°48'1413.6
2016-Jul-17 07:33N 54°57' W 005°27'1414.1
2016-Jul-17 06:33N 54°59' W 005°03'1 0.7
2016-Jul-17 04:32N 54°58' W 005°01'0 0.0
2016-Jul-17 03:29N 54°58' W 005°01'0 0.0
2016-Jul-17 02:32N 54°58' W 005°01'0 0.0
2016-Jul-17 01:20N 54°58' W 005°01'0 0.0
2016-Jul-17 00:29N 54°58' W 005°01'0 0.0
2016-Jul-16 23:32N 54°58' W 005°01'0 0.0
2016-Jul-16 22:32N 54°58' W 005°01'0 0.0
2016-Jul-16 21:33N 54°58' W 005°01'7 6.7
2016-Jul-16 20:33N 55°01' W 005°11'1818.4
2016-Jul-16 19:33N 54°53' W 005°40'5 5.1
2016-Jul-16 18:33N 54°51' W 005°48'0 0.0
2016-Jul-16 17:33N 54°51' W 005°48'1312.6
2016-Jul-16 16:34N 54°57' W 005°29'1615.5
2016-Jul-16 15:33N 54°58' W 005°02'1 0.7
2016-Jul-16 14:33N 54°58' W 005°01'10 9.8
2016-Jul-16 13:33N 54°59' W 005°18'1818.3
2016-Jul-16 12:33N 54°52' W 005°47'1 1.1
2016-Jul-16 11:33N 54°51' W 005°48'1313.1
2016-Jul-16 10:33N 54°57' W 005°28'1515.1
2016-Jul-16 09:33N 54°59' W 005°02'1 1.1
2016-Jul-16 08:33N 54°58' W 005°01'1010.2
2016-Jul-16 07:34N 54°59' W 005°19'1817.5
2016-Jul-16 06:34N 54°52' W 005°47'4 2.0
2016-Jul-16 04:33N 54°54' W 005°40'2019.7
2016-Jul-16 03:33N 55°02' W 005°09'6 6.4
2016-Jul-16 02:33N 54°58' W 005°01'0 0.0
2016-Jul-16 01:33N 54°58' W 005°01'5 4.7
2016-Jul-16 00:32N 55°02' W 005°06'1717.3
2016-Jul-15 23:33N 54°54' W 005°33'9 9.3
2016-Jul-15 22:33N 54°51' W 005°48'0 0.0
2016-Jul-15 21:33N 54°51' W 005°48'5 4.9
2016-Jul-15 20:33N 54°54' W 005°41'1716.6
2016-Jul-15 19:33N 55°01' W 005°14'8 8.3
2016-Jul-15 18:33N 54°58' W 005°01'  

Dump ship's entire track history